aviador You're here:

YMTG Decoded Metar

in
Report Time2018-05-27 01:00:00
UTC Time2018-05-27 01:23:07
Flight Rules vfr VFR
Wind020° at 11 kt
W.Decomp.*RWY 36: 10.3 kt HW 3.8 kt RCW
RWY 06: 8.4 kt HW 7.1 kt LCW
RWY 11: 11 kt LCW
W.Rank020° ranks 21
Current wind is above 020° avg. (8.5)
Visibility9999 m
Phenomena:N/A
Clouds:N/A
Expected CloudBase > 2,800 ft AGL from Temp-Dew spread
CeilingNone
Temp16°C
Dew Point09°C (63% RH)
AAT11.8°C
QNH1018 hPa
Raw Report
METAR YMTG 270100Z AUTO 02011KT 9999 // NCD 16/09 Q1018=

Extra information for YMTG:More info

Social comments